Time;durP1;ratioP1;P1;durP2;ratioP2;P2;SDS_P1;SDS_P2;PMS_P1;PMS_P2;Temp;Humidity;BMP_temperature;BMP_pressure;BME280_temperature;BME280_humidity;BME280_pressure;Samples;Min_cycle;Max_cycle;Signal;HPM_P1;HPM_P2
2023/12/04 00:00:36;;;;;;;45.85;18.77;;;0.80;99.90;;;;;;5029737;28;20037;-50
2023/12/04 00:03:03;;;;;;;46.70;20.83;;;1.00;99.90;;;;;;5030360;28;20478;-52
2023/12/04 00:05:29;;;;;;;43.45;18.25;;;1.70;99.90;;;;;;5029537;28;20041;-53
2023/12/04 00:07:55;;;;;;;41.55;18.70;;;1.40;99.90;;;;;;5033903;28;20042;-51
2023/12/04 00:10:21;;;;;;;47.03;20.00;;;0.90;99.90;;;;;;5033545;28;20053;-53
2023/12/04 00:12:46;;;;;;;47.30;20.63;;;1.00;99.90;;;;;;5032572;28;20041;-52
2023/12/04 00:15:12;;;;;;;47.85;19.55;;;1.30;99.90;;;;;;5033319;28;20064;-49
2023/12/04 00:17:39;;;;;;;46.28;20.60;;;1.40;99.90;;;;;;5033662;28;20038;-52
2023/12/04 00:20:09;;;;;;;51.15;21.20;;;1.30;99.90;;;;;;5033440;28;20049;-51
2023/12/04 00:22:36;;;;;;;46.47;20.25;;;1.50;99.90;;;;;;5033614;28;20052;-51
2023/12/04 00:25:03;;;;;;;46.85;20.63;;;0.90;99.90;;;;;;5033345;28;20072;-53
2023/12/04 00:27:29;;;;;;;40.00;18.17;;;1.80;99.90;;;;;;5033822;28;20049;-49
2023/12/04 00:29:55;;;;;;;42.33;20.08;;;1.60;99.90;;;;;;5033353;28;20086;-54
2023/12/04 00:32:20;;;;;;;43.33;19.92;;;1.80;99.90;;;;;;5033433;28;20037;-53
2023/12/04 00:34:46;;;;;;;50.53;21.13;;;1.00;99.90;;;;;;5033784;28;20037;-49
2023/12/04 00:37:12;;;;;;;51.03;21.42;;;1.50;99.90;;;;;;5031854;28;20087;-49
2023/12/04 00:39:38;;;;;;;45.80;19.65;;;1.00;99.90;;;;;;5033471;28;20037;-52
2023/12/04 00:42:03;;;;;;;43.42;20.67;;;1.70;99.90;;;;;;5030518;28;20667;-50
2023/12/04 00:44:29;;;;;;;42.97;18.20;;;1.20;99.90;;;;;;5033255;28;20044;-52
2023/12/04 00:46:55;;;;;;;46.22;19.10;;;1.70;99.90;;;;;;5031337;28;20144;-49
2023/12/04 00:49:21;;;;;;;45.55;19.15;;;1.30;99.90;;;;;;5033154;28;20087;-50
2023/12/04 00:51:46;;;;;;;47.45;22.08;;;1.00;99.90;;;;;;5033639;28;20048;-54
2023/12/04 00:54:12;;;;;;;41.40;20.27;;;1.00;99.90;;;;;;5032552;28;20427;-48
2023/12/04 00:56:39;;;;;;;41.20;18.95;;;1.00;99.90;;;;;;5033082;28;20034;-50
2023/12/04 00:59:06;;;;;;;45.58;19.48;;;1.10;99.90;;;;;;5032724;28;20104;-50
2023/12/04 01:01:32;;;;;;;45.03;18.52;;;1.00;99.90;;;;;;5031653;28;20048;-51
2023/12/04 01:03:59;;;;;;;42.67;20.17;;;1.10;99.90;;;;;;5033122;28;20045;-52
2023/12/04 01:06:25;;;;;;;44.17;19.95;;;1.70;99.90;;;;;;5032924;28;20042;-52
2023/12/04 01:08:52;;;;;;;44.28;17.13;;;1.70;99.90;;;;;;5032816;28;20512;-49
2023/12/04 01:11:19;;;;;;;40.53;18.23;;;1.10;99.90;;;;;;5032542;28;20073;-49
2023/12/04 01:13:45;;;;;;;44.33;18.17;;;1.80;99.90;;;;;;5031844;28;20113;-49
2023/12/04 01:16:11;;;;;;;42.65;18.10;;;1.10;99.90;;;;;;5031591;28;20033;-48
2023/12/04 01:18:36;;;;;;;44.50;20.40;;;1.70;99.90;;;;;;5032542;28;20033;-51
2023/12/04 01:21:02;;;;;;;43.67;19.48;;;1.80;99.90;;;;;;5032791;28;20045;-53
2023/12/04 01:23:28;;;;;;;47.40;19.52;;;1.10;99.90;;;;;;5032559;28;20048;-49
2023/12/04 01:25:54;;;;;;;41.83;19.05;;;1.30;99.90;;;;;;5032630;28;20044;-52
2023/12/04 01:28:19;;;;;;;45.13;17.88;;;1.50;99.90;;;;;;5032889;28;20033;-47
2023/12/04 01:30:45;;;;;;;41.63;18.48;;;1.80;99.90;;;;;;5030748;28;20045;-50
2023/12/04 01:33:11;;;;;;;40.35;18.05;;;1.10;99.90;;;;;;5030628;28;20045;-51
2023/12/04 01:35:36;;;;;;;44.40;18.85;;;1.60;99.90;;;;;;5031214;28;20037;-49
2023/12/04 01:38:02;;;;;;;44.25;19.20;;;1.80;99.90;;;;;;5032228;28;20491;-50
2023/12/04 01:40:28;;;;;;;47.45;19.73;;;1.50;99.90;;;;;;5032043;28;20060;-51
2023/12/04 01:42:53;;;;;;;43.42;18.48;;;1.80;99.90;;;;;;5032415;28;20243;-51
2023/12/04 01:45:19;;;;;;;42.63;18.25;;;1.30;99.90;;;;;;5032421;28;20175;-49
2023/12/04 01:47:46;;;;;;;45.95;20.05;;;1.60;99.90;;;;;;5032114;28;20049;-51
2023/12/04 01:50:13;;;;;;;38.47;16.85;;;1.70;99.90;;;;;;5032308;28;20473;-47
2023/12/04 01:52:40;;;;;;;40.45;16.80;;;1.70;99.90;;;;;;5031747;28;20053;-52
2023/12/04 01:55:06;;;;;;;42.55;18.00;;;1.80;99.90;;;;;;5032218;28;20041;-50
2023/12/04 01:57:32;;;;;;;42.72;17.75;;;1.80;99.90;;;;;;5030608;28;20048;-50
2023/12/04 01:59:58;;;;;;;42.40;17.42;;;1.60;99.90;;;;;;5029387;28;20057;-51
2023/12/04 02:02:24;;;;;;;42.15;17.38;;;1.20;99.90;;;;;;5030142;28;20065;-50
2023/12/04 02:04:50;;;;;;;41.30;17.90;;;1.80;99.90;;;;;;5031503;28;20511;-51
2023/12/04 02:07:15;;;;;;;43.08;17.92;;;1.70;99.90;;;;;;5031179;28;20523;-51
2023/12/04 02:09:41;;;;;;;39.10;16.70;;;1.10;99.90;;;;;;5031847;28;20037;-53
2023/12/04 02:12:07;;;;;;;40.22;17.73;;;1.60;99.90;;;;;;5031704;28;20041;-52
2023/12/04 02:14:32;;;;;;;38.25;16.02;;;1.20;99.90;;;;;;5031620;28;20037;-53
2023/12/04 02:17:00;;;;;;;40.15;16.38;;;1.80;99.90;;;;;;5031740;28;20041;-50
2023/12/04 02:19:26;;;;;;;41.67;16.45;;;1.40;99.90;;;;;;5031473;28;20087;-49
2023/12/04 02:21:52;;;;;;;38.90;15.52;;;1.40;99.90;;;;;;5031140;28;20033;-52
2023/12/04 02:24:17;;;;;;;38.28;16.25;;;1.60;99.90;;;;;;5031408;28;20038;-51
2023/12/04 02:26:49;;;;;;;37.80;16.17;;;1.60;99.90;;;;;;5031313;28;20041;-51
2023/12/04 02:29:23;;;;;;;39.38;15.93;;;1.20;99.90;;;;;;5030847;28;20052;-51
2023/12/04 02:31:49;;;;;;;;;;;1.30;99.90;;;;;;5031866;28;20033;-50
2023/12/04 02:34:16;;;;;;;35.33;15.55;;;1.70;99.90;;;;;;5031287;28;19970;-51
2023/12/04 02:36:43;;;;;;;36.42;14.52;;;1.60;99.90;;;;;;5030905;28;20050;-50
2023/12/04 02:39:09;;;;;;;33.17;15.68;;;1.30;99.90;;;;;;5028852;28;20041;-52
2023/12/04 02:41:34;;;;;;;37.95;15.20;;;1.20;99.90;;;;;;5031195;28;20493;-54
2023/12/04 02:44:00;;;;;;;35.58;14.13;;;1.70;99.90;;;;;;5031117;28;20610;-51
2023/12/04 02:46:26;;;;;;;39.95;15.32;;;1.20;99.90;;;;;;5030687;28;20117;-49
2023/12/04 02:48:51;;;;;;;36.38;15.00;;;1.80;99.90;;;;;;5031051;28;20044;-52
2023/12/04 02:51:17;;;;;;;36.40;14.88;;;1.60;99.90;;;;;;5028815;28;20236;-51
2023/12/04 02:53:43;;;;;;;35.20;14.48;;;1.20;99.90;;;;;;5030928;28;20041;-50
2023/12/04 02:56:09;;;;;;;33.25;14.00;;;1.30;99.90;;;;;;5029540;28;20034;-48
2023/12/04 02:58:35;;;;;;;34.83;14.02;;;1.20;99.90;;;;;;5029264;28;20044;-51
2023/12/04 03:01:00;;;;;;;38.15;15.35;;;1.20;99.90;;;;;;5031186;28;20485;-51
2023/12/04 03:03:26;;;;;;;35.13;14.52;;;1.80;99.90;;;;;;5031130;28;20054;-52
2023/12/04 03:05:51;;;;;;;36.63;15.40;;;1.40;99.90;;;;;;5030998;28;20033;-52
2023/12/04 03:08:17;;;;;;;36.08;14.23;;;1.40;99.90;;;;;;5030959;28;20457;-51
2023/12/04 03:10:43;;;;;;;38.10;14.55;;;1.60;99.90;;;;;;5029066;28;20466;-53
2023/12/04 03:13:08;;;;;;;35.33;14.43;;;1.20;99.90;;;;;;5027436;28;20076;-51
2023/12/04 03:15:34;;;;;;;36.30;14.27;;;1.30;99.90;;;;;;5028986;28;20072;-54
2023/12/04 03:18:00;;;;;;;34.42;14.10;;;1.30;99.90;;;;;;5031021;28;20103;-54
2023/12/04 03:20:26;;;;;;;33.50;14.38;;;1.50;99.90;;;;;;5030448;28;20055;-52
2023/12/04 03:22:52;;;;;;;33.88;13.98;;;1.30;99.90;;;;;;5030990;28;20041;-54
2023/12/04 03:25:17;;;;;;;33.80;14.63;;;1.50;99.90;;;;;;5030502;28;20036;-52
2023/12/04 03:27:43;;;;;;;34.40;14.82;;;1.30;99.90;;;;;;5030612;28;20041;-52
2023/12/04 03:30:09;;;;;;;35.55;14.68;;;1.20;99.90;;;;;;5027810;28;20076;-51
2023/12/04 03:32:35;;;;;;;31.65;14.13;;;1.50;99.90;;;;;;5030461;28;20041;-51
2023/12/04 03:35:01;;;;;;;36.67;17.15;;;1.50;99.90;;;;;;5030495;28;20115;-51
2023/12/04 03:37:26;;;;;;;35.92;14.93;;;1.30;99.90;;;;;;5029004;28;20175;-53
2023/12/04 03:39:52;;;;;;;32.63;13.90;;;1.80;99.90;;;;;;5031970;28;20045;-54
2023/12/04 03:42:18;;;;;;;33.30;14.52;;;1.40;99.90;;;;;;5034728;28;20377;-51
2023/12/04 03:44:43;;;;;;;33.45;14.35;;;1.30;99.90;;;;;;5033136;28;20489;-51
2023/12/04 03:47:09;;;;;;;32.13;12.45;;;1.80;99.90;;;;;;5034228;28;20048;-50
2023/12/04 03:49:35;;;;;;;32.58;14.38;;;1.50;99.90;;;;;;5034223;28;20030;-53
2023/12/04 03:52:00;;;;;;;29.55;13.55;;;1.30;99.90;;;;;;5033311;28;20048;-52
2023/12/04 03:54:26;;;;;;;31.42;12.82;;;1.40;99.90;;;;;;5033787;28;20052;-52
2023/12/04 03:56:52;;;;;;;30.17;13.60;;;1.40;99.90;;;;;;5034298;28;20136;-56
2023/12/04 03:59:17;;;;;;;29.77;12.85;;;2.20;99.90;;;;;;5033597;28;20044;-52
2023/12/04 04:01:43;;;;;;;31.98;14.27;;;1.80;99.90;;;;;;5034410;28;20030;-51
2023/12/04 04:04:09;;;;;;;34.08;13.65;;;1.70;99.90;;;;;;5034121;28;20044;-53
2023/12/04 04:06:34;;;;;;;29.95;12.93;;;1.90;99.90;;;;;;5034075;28;20492;-54
2023/12/04 04:09:00;;;;;;;32.97;13.05;;;1.40;99.90;;;;;;5034408;28;20078;-52
2023/12/04 04:11:26;;;;;;;33.30;13.38;;;1.50;99.90;;;;;;5033562;28;20068;-51
2023/12/04 04:13:51;;;;;;;29.30;12.13;;;1.70;99.90;;;;;;5034063;28;20037;-52
2023/12/04 04:16:17;;;;;;;30.42;12.65;;;1.80;99.90;;;;;;5033667;28;20174;-50
2023/12/04 04:18:43;;;;;;;27.77;12.88;;;1.40;99.90;;;;;;5031756;28;20055;-50
2023/12/04 04:21:09;;;;;;;30.10;12.05;;;1.60;99.90;;;;;;5031875;28;20040;-53
2023/12/04 04:23:35;;;;;;;29.02;11.38;;;1.40;99.90;;;;;;5033422;28;20076;-48
2023/12/04 04:26:02;;;;;;;27.88;11.60;;;1.40;99.90;;;;;;5033184;28;20049;-53
2023/12/04 04:28:28;;;;;;;30.45;12.02;;;1.40;99.90;;;;;;5033540;28;20076;-51
2023/12/04 04:30:53;;;;;;;30.63;13.30;;;1.70;99.90;;;;;;5031969;28;20733;-49
2023/12/04 04:33:19;;;;;;;30.95;12.90;;;1.60;99.90;;;;;;5031991;28;20030;-49
2023/12/04 04:35:45;;;;;;;33.03;13.85;;;1.50;99.90;;;;;;5033487;28;20087;-50
2023/12/04 04:38:10;;;;;;;28.23;12.45;;;1.40;99.90;;;;;;5033364;28;20504;-53
2023/12/04 04:40:36;;;;;;;29.30;12.05;;;1.40;99.90;;;;;;5033469;28;20120;-49
2023/12/04 04:43:02;;;;;;;30.08;12.52;;;1.40;99.90;;;;;;5032385;28;20056;-52
2023/12/04 04:45:27;;;;;;;33.67;13.73;;;1.40;99.90;;;;;;5033274;28;20072;-49
2023/12/04 04:47:53;;;;;;;28.33;12.20;;;1.60;99.90;;;;;;5033149;28;20072;-54
2023/12/04 04:50:19;;;;;;;28.63;12.15;;;1.80;99.90;;;;;;5031326;28;20053;-53
2023/12/04 04:52:44;;;;;;;29.73;14.02;;;1.80;99.90;;;;;;5031930;28;20041;-49
2023/12/04 04:55:10;;;;;;;24.88;10.98;;;1.50;99.90;;;;;;5033463;28;20040;-51
2023/12/04 04:57:36;;;;;;;30.48;13.52;;;1.40;99.90;;;;;;5033366;28;20045;-50
2023/12/04 05:00:01;;;;;;;27.48;11.75;;;1.80;99.90;;;;;;5032584;28;20500;-51
2023/12/04 05:02:27;;;;;;;27.20;11.90;;;1.40;99.90;;;;;;5033241;28;20041;-52
2023/12/04 05:04:53;;;;;;;30.80;12.10;;;1.80;99.90;;;;;;5031992;28;20545;-51
2023/12/04 05:07:18;;;;;;;30.02;11.60;;;1.60;99.90;;;;;;5032384;28;20037;-51
2023/12/04 05:09:44;;;;;;;30.95;12.68;;;1.90;99.90;;;;;;5032760;28;20093;-48
2023/12/04 05:12:10;;;;;;;23.90;11.25;;;1.50;99.90;;;;;;5032985;28;20045;-51
2023/12/04 05:14:36;;;;;;;29.17;11.98;;;1.50;99.90;;;;;;5032555;28;20057;-50
2023/12/04 05:17:01;;;;;;;25.50;11.40;;;1.40;99.90;;;;;;5032942;28;20087;-50
2023/12/04 05:19:27;;;;;;;29.73;12.02;;;1.50;99.90;;;;;;5032748;28;20043;-52
2023/12/04 05:21:53;;;;;;;27.35;12.00;;;1.60;99.90;;;;;;5030643;28;20400;-51
2023/12/04 05:24:18;;;;;;;24.88;11.23;;;1.40;99.90;;;;;;5032537;28;20030;-51
2023/12/04 05:26:44;;;;;;;26.05;12.35;;;1.80;99.90;;;;;;5032552;28;20492;-50
2023/12/04 05:29:09;;;;;;;23.90;11.43;;;1.70;99.90;;;;;;5030931;28;20464;-49
2023/12/04 05:31:35;;;;;;;28.35;11.93;;;1.00;99.90;;;;;;5032160;28;20476;-51
2023/12/04 05:34:01;;;;;;;25.23;11.25;;;1.70;99.90;;;;;;5031390;28;20134;-52
2023/12/04 05:36:27;;;;;;;26.88;11.27;;;1.40;99.90;;;;;;5032441;28;20052;-53
2023/12/04 05:38:53;;;;;;;26.17;11.25;;;1.50;99.90;;;;;;5032461;28;20389;-53
2023/12/04 05:41:19;;;;;;;25.35;10.52;;;1.60;99.90;;;;;;5030673;28;20049;-50
2023/12/04 05:43:45;;;;;;;22.92;11.15;;;1.60;99.90;;;;;;5032406;28;20084;-49
2023/12/04 05:46:10;;;;;;;26.45;11.15;;;1.90;99.90;;;;;;5032500;28;20537;-49
2023/12/04 05:48:36;;;;;;;25.92;11.38;;;1.70;99.90;;;;;;5032135;28;20397;-52
2023/12/04 05:51:02;;;;;;;21.08;10.05;;;1.40;99.90;;;;;;5032082;28;20541;-51
2023/12/04 05:53:29;;;;;;;25.73;10.63;;;1.40;99.90;;;;;;5031636;28;20073;-50
2023/12/04 05:55:54;;;;;;;25.10;10.73;;;1.30;99.90;;;;;;5031840;28;20124;-50
2023/12/04 05:58:20;;;;;;;23.83;10.68;;;1.40;99.90;;;;;;5029012;28;20128;-51
2023/12/04 06:00:46;;;;;;;23.73;9.90;;;1.40;99.90;;;;;;5031500;28;20116;-49
2023/12/04 06:03:11;;;;;;;23.63;10.75;;;1.30;99.90;;;;;;5031325;28;20036;-50
2023/12/04 06:05:37;;;;;;;24.67;10.20;;;1.20;99.90;;;;;;5031998;28;20125;-49
2023/12/04 06:08:03;;;;;;;23.50;11.07;;;1.40;99.90;;;;;;5031918;28;20060;-52
2023/12/04 06:10:29;;;;;;;27.02;11.80;;;1.40;99.90;;;;;;5031543;28;20049;-48
2023/12/04 06:12:54;;;;;;;22.90;10.50;;;1.60;99.90;;;;;;5031847;28;20079;-52
2023/12/04 06:15:20;;;;;;;20.42;9.77;;;1.40;99.90;;;;;;5031633;28;20397;-52
2023/12/04 06:17:46;;;;;;;24.45;10.55;;;1.50;99.90;;;;;;5031640;28;20045;-48
2023/12/04 06:20:12;;;;;;;22.60;10.35;;;1.20;99.90;;;;;;5031297;28;20112;-50
2023/12/04 06:22:37;;;;;;;24.40;10.45;;;1.60;99.90;;;;;;5031354;28;20045;-52
2023/12/04 06:25:04;;;;;;;20.65;9.30;;;1.60;99.90;;;;;;5031361;28;20171;-50
2023/12/04 06:27:30;;;;;;;20.92;8.88;;;1.50;99.90;;;;;;5028802;28;20045;-52
2023/12/04 06:29:56;;;;;;;22.65;10.25;;;1.50;99.90;;;;;;5031063;28;20040;-50
2023/12/04 06:32:21;;;;;;;22.13;10.02;;;1.40;99.90;;;;;;5031580;28;20063;-50
2023/12/04 06:34:47;;;;;;;20.50;9.18;;;1.60;99.90;;;;;;5031316;28;20037;-52
2023/12/04 06:37:13;;;;;;;20.27;9.20;;;1.50;99.90;;;;;;5029222;28;20042;-49
2023/12/04 06:39:40;;;;;;;19.60;9.07;;;1.60;99.90;;;;;;5031490;28;20342;-51
2023/12/04 06:42:11;;;;;;;18.70;9.07;;;1.50;99.90;;;;;;5031464;28;20041;-52
2023/12/04 06:44:37;;;;;;;19.05;8.80;;;1.60;99.90;;;;;;5031048;28;20048;-49
2023/12/04 06:47:04;;;;;;;21.42;9.38;;;1.50;99.90;;;;;;5031043;28;20502;-50
2023/12/04 06:49:31;;;;;;;18.35;8.68;;;1.60;99.90;;;;;;5030765;28;20489;-49
2023/12/04 06:51:57;;;;;;;20.55;8.75;;;1.40;99.90;;;;;;5031249;28;20041;-47
2023/12/04 06:54:23;;;;;;;18.10;9.02;;;1.50;99.90;;;;;;5031188;28;20507;-50
2023/12/04 06:56:49;;;;;;;21.80;8.77;;;1.60;99.90;;;;;;5029148;28;20033;-52
2023/12/04 06:59:14;;;;;;;19.05;8.73;;;1.60;99.90;;;;;;5030762;28;20038;-49
2023/12/04 07:01:40;;;;;;;22.05;9.65;;;1.40;99.90;;;;;;5030623;28;20400;-49
2023/12/04 07:04:09;;;;;;;19.23;8.90;;;1.60;99.90;;;;;;5031017;28;20041;-48
2023/12/04 07:06:42;;;;;;;20.85;8.88;;;1.50;99.90;;;;;;5030620;28;20048;-52
2023/12/04 07:09:08;;;;;;;16.03;7.63;;;1.60;99.90;;;;;;5030806;28;20037;-48
2023/12/04 07:11:34;;;;;;;19.63;8.35;;;1.70;99.90;;;;;;5030424;28;20493;-48
2023/12/04 07:14:00;;;;;;;17.15;7.93;;;1.60;99.90;;;;;;5030037;28;20589;-51
2023/12/04 07:16:25;;;;;;;17.08;8.30;;;1.50;99.90;;;;;;5030742;28;20049;-50
2023/12/04 07:18:51;;;;;;;18.85;9.13;;;1.40;99.90;;;;;;5030536;28;20575;-46
2023/12/04 07:21:17;;;;;;;17.30;7.18;;;1.50;99.90;;;;;;5030694;28;20033;-48
2023/12/04 07:23:42;;;;;;;18.48;7.55;;;1.50;99.90;;;;;;5030910;28;20076;-50
2023/12/04 07:26:08;;;;;;;18.15;8.23;;;1.60;99.90;;;;;;5030748;28;20041;-48
2023/12/04 07:28:34;;;;;;;17.73;8.48;;;2.10;99.90;;;;;;5028994;28;20484;-49
2023/12/04 07:31:01;;;;;;;14.52;7.05;;;1.60;99.90;;;;;;5029667;28;20051;-49
2023/12/04 07:33:27;;;;;;;15.65;7.20;;;1.60;99.90;;;;;;5030626;28;20085;-50
2023/12/04 07:35:53;;;;;;;16.83;7.97;;;1.50;99.90;;;;;;5030866;28;20038;-51
2023/12/04 07:38:19;;;;;;;15.10;6.97;;;1.60;99.90;;;;;;5029043;28;20037;-52
2023/12/04 07:40:45;;;;;;;17.35;7.53;;;1.50;99.90;;;;;;5028266;28;20045;-50
2023/12/04 07:43:11;;;;;;;14.95;7.28;;;1.60;99.90;;;;;;5030247;28;20476;-48
2023/12/04 07:45:37;;;;;;;17.23;7.47;;;1.70;99.90;;;;;;5029402;28;20049;-51
2023/12/04 07:48:06;;;;;;;14.20;6.30;;;1.70;99.90;;;;;;5030391;28;20393;-50
2023/12/04 07:50:32;;;;;;;17.63;7.38;;;1.60;99.90;;;;;;5030769;28;20165;-50
2023/12/04 07:52:57;;;;;;;13.90;6.50;;;1.70;99.90;;;;;;5030060;28;20480;-50
2023/12/04 07:55:23;;;;;;;14.70;6.18;;;1.60;99.90;;;;;;5028716;28;20033;-49
2023/12/04 07:57:50;;;;;;;16.70;7.80;;;1.70;99.90;;;;;;5029812;28;20073;-52
2023/12/04 08:00:17;;;;;;;15.38;7.18;;;1.60;99.90;;;;;;5029989;28;20049;-49
2023/12/04 08:02:45;;;;;;;14.30;7.25;;;1.60;99.90;;;;;;5030346;28;20095;-49
2023/12/04 08:05:12;;;;;;;13.70;6.40;;;1.60;99.90;;;;;;5030703;28;20508;-50
2023/12/04 08:07:38;;;;;;;13.50;6.47;;;1.60;99.90;;;;;;5030322;28;20048;-52
2023/12/04 08:10:04;;;;;;;14.15;7.22;;;1.60;99.90;;;;;;5030248;28;20053;-50
2023/12/04 08:12:30;;;;;;;13.77;6.93;;;1.60;99.90;;;;;;5030242;28;20029;-50
2023/12/04 08:14:55;;;;;;;13.02;6.63;;;1.70;99.90;;;;;;5010261;28;20041;-50
2023/12/04 08:17:21;;;;;;;14.57;7.07;;;1.70;99.90;;;;;;5020713;28;20044;-49
2023/12/04 08:19:47;;;;;;;13.68;6.75;;;1.70;99.90;;;;;;5019598;28;20425;-48
2023/12/04 08:22:12;;;;;;;12.20;6.22;;;1.60;99.90;;;;;;5019277;28;20038;-49
2023/12/04 08:24:38;;;;;;;12.70;6.05;;;1.50;99.90;;;;;;5021587;28;20032;-50
2023/12/04 08:27:04;;;;;;;13.30;5.93;;;1.70;99.90;;;;;;5023859;28;20095;-51
2023/12/04 08:29:29;;;;;;;14.85;6.57;;;1.60;99.90;;;;;;5024115;28;20049;-51
2023/12/04 08:31:55;;;;;;;12.65;6.43;;;1.60;99.90;;;;;;5024733;28;20040;-52
2023/12/04 08:34:21;;;;;;;12.82;6.53;;;1.70;99.90;;;;;;5025607;28;20037;-50
2023/12/04 08:36:46;;;;;;;13.30;5.90;;;1.70;99.90;;;;;;5024502;28;20037;-48
2023/12/04 08:39:12;;;;;;;13.68;6.05;;;1.70;99.90;;;;;;5024576;28;20038;-54
2023/12/04 08:41:38;;;;;;;11.80;6.38;;;1.70;99.90;;;;;;5024688;28;20034;-49
2023/12/04 08:44:04;;;;;;;14.70;6.22;;;2.30;99.90;;;;;;5023871;28;20440;-53
2023/12/04 08:46:29;;;;;;;11.77;5.57;;;1.70;99.90;;;;;;5024729;28;20061;-46
2023/12/04 08:48:55;;;;;;;13.00;6.03;;;1.50;99.90;;;;;;5025188;28;20513;-51
2023/12/04 08:51:21;;;;;;;12.27;6.05;;;1.80;99.90;;;;;;5025660;28;20124;-51
2023/12/04 08:53:47;;;;;;;11.77;5.70;;;1.80;99.90;;;;;;5024505;28;20071;-51
2023/12/04 08:56:12;;;;;;;14.10;6.30;;;1.90;99.90;;;;;;5024259;28;20513;-52
2023/12/04 08:58:38;;;;;;;12.25;6.10;;;1.90;99.90;;;;;;5024675;28;20037;-49
2023/12/04 09:01:04;;;;;;;11.02;5.57;;;2.20;99.90;;;;;;5024792;28;20045;-51
2023/12/04 09:03:34;;;;;;;11.27;5.35;;;2.00;99.90;;;;;;5024807;28;20045;-54
2023/12/04 09:05:59;;;;;;;11.93;6.38;;;2.00;99.90;;;;;;5024586;28;20563;-49
2023/12/04 09:08:27;;;;;;;12.27;5.40;;;2.00;99.90;;;;;;5025461;28;20042;-51
2023/12/04 09:10:53;;;;;;;11.55;5.32;;;2.00;99.90;;;;;;5024279;28;20127;-51
2023/12/04 09:13:18;;;;;;;12.93;6.10;;;2.20;99.90;;;;;;5024744;28;20049;-51
2023/12/04 09:15:44;;;;;;;10.80;4.88;;;2.10;99.90;;;;;;5024447;28;20124;-48
2023/12/04 09:18:10;;;;;;;9.98;5.30;;;2.10;99.90;;;;;;5024020;28;20029;-53
2023/12/04 09:20:35;;;;;;;11.23;4.97;;;2.10;99.90;;;;;;5025316;28;20061;-50
2023/12/04 09:23:01;;;;;;;13.55;5.50;;;2.00;99.90;;;;;;5024600;28;20083;-51
2023/12/04 09:25:27;;;;;;;11.82;5.47;;;2.20;99.90;;;;;;5022831;28;20068;-48
2023/12/04 09:27:53;;;;;;;10.75;5.30;;;2.20;99.90;;;;;;5025060;28;20366;-51
2023/12/04 09:30:19;;;;;;;12.25;5.60;;;2.30;99.90;;;;;;5023157;28;20072;-49
2023/12/04 09:32:44;;;;;;;12.15;5.55;;;2.30;99.90;;;;;;5024089;28;20481;-49
2023/12/04 09:35:10;;;;;;;10.88;5.10;;;2.70;99.90;;;;;;5024428;28;20759;-49
2023/12/04 09:37:36;;;;;;;10.75;5.18;;;2.30;99.90;;;;;;5023784;28;20048;-51
2023/12/04 09:40:02;;;;;;;10.80;4.70;;;2.30;99.90;;;;;;5024276;28;20481;-53
2023/12/04 09:42:32;;;;;;;10.27;5.10;;;2.40;99.90;;;;;;5023924;28;20033;-50
2023/12/04 09:44:58;;;;;;;12.23;5.80;;;2.40;99.90;;;;;;5023513;28;20492;-52
2023/12/04 09:47:25;;;;;;;10.50;4.40;;;2.60;99.90;;;;;;5024338;28;20096;-49
2023/12/04 09:49:53;;;;;;;12.63;5.28;;;2.50;99.90;;;;;;5007040;28;20041;-49
2023/12/04 09:52:20;;;;;;;11.13;5.15;;;2.40;99.90;;;;;;5023709;28;20036;-51
2023/12/04 09:54:46;;;;;;;12.13;5.25;;;2.50;99.90;;;;;;5024843;28;20773;-52
2023/12/04 09:57:15;;;;;;;9.13;4.60;;;2.50;99.90;;;;;;5023608;28;20041;-52
2023/12/04 09:59:44;;;;;;;10.73;5.15;;;2.50;99.90;;;;;;5023720;28;20062;-50
2023/12/04 10:02:11;;;;;;;10.75;5.32;;;2.50;99.90;;;;;;5023191;28;20030;-53
2023/12/04 10:04:37;;;;;;;10.23;4.78;;;3.10;99.90;;;;;;5022297;28;20045;-48
2023/12/04 10:07:03;;;;;;;10.95;5.30;;;2.60;99.90;;;;;;5022460;28;20385;-50
2023/12/04 10:09:28;;;;;;;11.63;5.30;;;2.60;99.90;;;;;;5023353;28;20863;-50
2023/12/04 10:11:56;;;;;;;11.05;5.20;;;2.60;99.90;;;;;;5023656;28;20049;-53
2023/12/04 10:14:22;;;;;;;11.18;5.07;;;2.50;99.90;;;;;;5023781;28;20067;-54
2023/12/04 10:16:49;;;;;;;10.35;5.10;;;2.60;99.90;;;;;;5023007;28;21603;-51
2023/12/04 10:19:25;;;;;;;11.35;5.38;;;2.50;99.90;;;;;;5023470;28;20113;-53
2023/12/04 10:21:52;;;;;;;10.82;5.45;;;2.60;99.90;;;;;;5023320;28;20388;-52
2023/12/04 10:24:32;;;;;;;11.50;4.93;;;2.60;99.90;;;;;;5023722;28;20423;-51
2023/12/04 10:26:59;;;;;;;11.38;4.90;;;2.60;99.90;;;;;;5022120;28;20121;-51
2023/12/04 10:29:32;;;;;;;10.25;5.35;;;2.70;99.90;;;;;;5020568;28;20040;-50
2023/12/04 10:31:59;;;;;;;10.35;5.38;;;2.60;99.90;;;;;;5022788;28;20038;-51
2023/12/04 10:34:26;;;;;;;11.40;5.55;;;2.60;99.90;;;;;;5023108;28;20037;-50
2023/12/04 10:36:52;;;;;;;14.00;5.55;;;2.60;99.90;;;;;;5018892;28;20042;-50
2023/12/04 10:39:18;;;;;;;12.70;5.63;;;2.70;99.90;;;;;;5023411;28;20041;-51
2023/12/04 10:41:44;;;;;;;12.00;5.30;;;2.70;99.90;;;;;;5021518;28;20466;-49
2023/12/04 10:44:15;;;;;;;10.15;5.38;;;2.60;99.90;;;;;;5021234;28;20049;-48
2023/12/04 10:46:43;;;;;;;9.80;4.78;;;2.60;99.90;;;;;;5022656;28;20460;-49
2023/12/04 10:49:10;;;;;;;11.93;5.80;;;2.60;99.90;;;;;;5020602;28;20531;-49
2023/12/04 10:51:38;;;;;;;9.63;5.07;;;2.60;99.90;;;;;;5022448;28;20113;-50
2023/12/04 10:54:05;;;;;;;11.45;5.63;;;2.60;99.90;;;;;;5002844;28;20167;-52
2023/12/04 10:56:38;;;;;;;10.68;5.00;;;2.60;99.90;;;;;;5021921;28;20056;-52
2023/12/04 10:59:10;;;;;;;9.98;4.80;;;2.70;99.90;;;;;;5021240;28;20493;-52
2023/12/04 11:01:37;;;;;;;10.88;4.95;;;2.50;99.90;;;;;;5020201;28;20178;-53
2023/12/04 11:04:07;;;;;;;10.32;5.43;;;2.60;99.90;;;;;;5020681;28;20029;-53
2023/12/04 11:06:38;;;;;;;10.02;5.50;;;2.50;99.90;;;;;;5022668;28;20424;-49
2023/12/04 11:09:05;;;;;;;9.30;4.53;;;2.50;99.90;;;;;;5021468;28;20561;-50
2023/12/04 11:11:35;;;;;;;10.30;5.07;;;3.00;99.90;;;;;;5021819;28;20064;-52
2023/12/04 11:14:03;;;;;;;15.15;5.55;;;2.80;99.90;;;;;;5021510;28;20132;-51
2023/12/04 11:16:32;;;;;;;12.13;5.20;;;2.80;99.90;;;;;;5021720;28;20489;-52
2023/12/04 11:19:19;;;;;;;9.93;5.05;;;2.80;99.90;;;;;;5020772;28;20045;-51
2023/12/04 11:21:46;;;;;;;10.75;5.63;;;2.80;99.90;;;;;;5019618;28;20090;-48
2023/12/04 11:24:12;;;;;;;11.95;6.32;;;2.90;99.90;;;;;;5019619;28;20038;-50
2023/12/04 11:26:42;;;;;;;11.90;6.07;;;2.90;99.90;;;;;;5041860;28;20056;-52
2023/12/04 11:29:09;;;;;;;9.85;5.20;;;2.90;99.90;;;;;;5019131;28;20053;-52
2023/12/04 11:31:36;;;;;;;12.32;5.35;;;2.90;99.90;;;;;;5022706;28;20041;-51
2023/12/04 11:34:03;;;;;;;12.52;5.28;;;3.00;99.90;;;;;;5020352;28;20036;-50
2023/12/04 11:36:29;;;;;;;11.68;5.95;;;3.00;99.90;;;;;;5019335;28;20041;-52
2023/12/04 11:38:56;;;;;;;11.45;5.63;;;3.00;99.90;;;;;;5021058;28;20038;-50
2023/12/04 11:41:25;;;;;;;11.30;5.05;;;3.00;99.90;;;;;;5023534;28;20068;-51
2023/12/04 11:43:52;;;;;;;10.32;5.25;;;3.00;99.90;;;;;;5022083;28;20124;-49
2023/12/04 11:46:26;;;;;;;9.40;5.22;;;3.10;99.90;;;;;;5023676;28;20034;-50
2023/12/04 11:48:56;;;;;;;9.63;5.45;;;3.00;99.90;;;;;;5028154;28;20414;-50
2023/12/04 11:51:46;;;;;;;11.85;5.43;;;3.10;99.90;;;;;;5023298;28;20049;-49
2023/12/04 11:54:15;;;;;;;16.00;5.53;;;3.20;99.90;;;;;;5021458;28;20049;-51
2023/12/04 11:56:56;;;;;;;10.90;5.97;;;3.20;99.90;;;;;;5026975;28;20552;-51
2023/12/04 11:59:21;;;;;;;11.05;5.20;;;3.20;99.90;;;;;;5025427;28;20654;-51
2023/12/04 12:01:50;;;;;;;10.45;4.80;;;3.20;99.90;;;;;;5025933;28;20033;-49
2023/12/04 12:04:17;;;;;;;11.43;5.05;;;3.00;99.90;;;;;;5031132;28;20076;-51
2023/12/04 12:06:44;;;;;;;10.70;5.50;;;3.20;99.90;;;;;;5024888;28;20044;-52
2023/12/04 12:09:10;;;;;;;8.90;4.95;;;3.20;99.90;;;;;;5029632;28;20041;-50
2023/12/04 12:11:36;;;;;;;9.77;4.88;;;3.20;99.90;;;;;;5031099;28;20080;-49
2023/12/04 12:14:02;;;;;;;10.40;4.80;;;3.10;99.90;;;;;;5029979;28;20033;-51
2023/12/04 12:16:27;;;;;;;9.77;5.15;;;3.10;99.90;;;;;;5030461;28;20042;-51
2023/12/04 12:18:53;;;;;;;11.10;5.00;;;3.30;99.90;;;;;;5028275;28;20041;-48
2023/12/04 12:21:19;;;;;;;11.20;5.10;;;3.10;99.90;;;;;;5029013;28;20045;-50
2023/12/04 12:23:45;;;;;;;9.50;4.95;;;3.10;99.90;;;;;;5028857;28;20049;-51
2023/12/04 12:26:11;;;;;;;11.93;5.70;;;3.10;99.90;;;;;;5031622;28;20041;-52
2023/12/04 12:28:37;;;;;;;9.13;4.95;;;3.00;99.90;;;;;;5031550;28;20162;-51
2023/12/04 12:31:03;;;;;;;9.55;4.72;;;3.10;99.90;;;;;;5028820;28;20041;-51
2023/12/04 12:33:29;;;;;;;12.02;5.07;;;3.10;99.90;;;;;;5030449;28;20100;-52
2023/12/04 12:35:56;;;;;;;10.88;4.85;;;3.10;99.90;;;;;;5028435;28;20076;-50
2023/12/04 12:38:21;;;;;;;9.63;5.50;;;3.00;99.90;;;;;;5029940;28;20042;-49